Time;durP1;ratioP1;P1;durP2;ratioP2;P2;SDS_P1;SDS_P2;PMS_P1;PMS_P2;Temp;Humidity;BMP_temperature;BMP_pressure;BME280_temperature;BME280_humidity;BME280_pressure;Samples;Min_cycle;Max_cycle;Signal;HPM_P1;HPM_P2
2022/01/13 00:01:52;;;;;;;588.80;71.60;;;;;;;;;;5039055;28;20048;-68
2022/01/13 00:04:18;;;;;;;658.83;77.53;;;;;;;;;;5038168;28;20111;-68
2022/01/13 00:06:45;;;;;;;568.33;66.43;;;;;;;;;;5039513;28;20048;-67
2022/01/13 00:09:11;;;;;;;582.73;70.10;;;;;;;;;;5038059;28;20045;-67
2022/01/13 00:11:37;;;;;;;614.10;71.90;;;;;;;;;;5038046;28;20038;-68
2022/01/13 00:14:26;;;;;;;656.50;77.13;;;;;;;;;;5038177;28;20706;-67
2022/01/13 00:24:48;;;;;;;516.40;66.23;;;;;;;;;;5051505;28;20088;-67
2022/01/13 00:27:15;;;;;;;573.43;72.60;;;;;;;;;;5037936;28;20122;-67
2022/01/13 00:29:43;;;;;;;520.23;64.30;;;;;;;;;;5050018;28;20082;-68
2022/01/13 00:32:12;;;;;;;488.43;60.40;;;;;;;;;;5037951;28;20445;-68
2022/01/13 00:34:38;;;;;;;485.93;63.40;;;;;;;;;;5034916;28;20073;-68
2022/01/13 00:37:04;;;;;;;489.83;65.73;;;;;;;;;;5028789;28;20095;-67
2022/01/13 00:39:30;;;;;;;511.90;64.93;;;;;;;;;;5028580;28;20103;-68
2022/01/13 00:41:56;;;;;;;505.90;66.17;;;;;;;;;;5029721;28;20049;-68
2022/01/13 00:44:22;;;;;;;402.70;54.90;;;;;;;;;;5028512;28;20103;-68
2022/01/13 00:46:54;;;;;;;493.83;66.73;;;;;;;;;;5029577;28;20045;-68
2022/01/13 00:49:20;;;;;;;490.60;63.00;;;;;;;;;;5029218;28;20157;-68
2022/01/13 00:51:46;;;;;;;488.87;64.33;;;;;;;;;;5028521;28;20108;-67
2022/01/13 00:54:13;;;;;;;519.53;68.37;;;;;;;;;;5028427;28;20528;-68
2022/01/13 00:56:39;;;;;;;506.53;65.60;;;;;;;;;;5029448;28;20045;-68
2022/01/13 00:59:09;;;;;;;601.37;73.13;;;;;;;;;;5029488;28;20037;-68
2022/01/13 01:01:35;;;;;;;499.03;67.70;;;;;;;;;;5029654;28;20041;-67
2022/01/13 01:04:03;;;;;;;501.60;66.40;;;;;;;;;;5028890;28;20415;-68
2022/01/13 01:06:29;;;;;;;591.37;71.10;;;;;;;;;;5029493;28;20033;-68
2022/01/13 01:08:55;;;;;;;533.93;65.40;;;;;;;;;;5029218;28;20041;-68
2022/01/13 01:11:21;;;;;;;564.23;69.23;;;;;;;;;;5029205;28;20049;-68
2022/01/13 01:13:50;;;;;;;550.77;70.10;;;;;;;;;;5029190;28;20052;-68
2022/01/13 01:16:18;;;;;;;479.57;58.17;;;;;;;;;;5029115;28;20053;-68
2022/01/13 01:28:49;;;;;;;539.07;66.17;;;;;;;;;;5028935;28;20049;-68
2022/01/13 01:31:16;;;;;;;570.50;66.13;;;;;;;;;;5028359;28;20055;-67
2022/01/13 01:33:52;;;;;;;468.07;55.50;;;;;;;;;;5028533;28;20057;-67
2022/01/13 01:36:18;;;;;;;420.70;52.93;;;;;;;;;;5028710;28;20055;-67
2022/01/13 01:38:48;;;;;;;515.50;62.10;;;;;;;;;;5027835;28;20049;-67
2022/01/13 01:41:16;;;;;;;471.83;62.17;;;;;;;;;;5027269;28;20064;-68
2022/01/13 01:43:42;;;;;;;485.47;64.50;;;;;;;;;;5028761;28;20124;-68
2022/01/13 01:46:08;;;;;;;398.23;51.27;;;;;;;;;;5027858;28;20046;-68
2022/01/13 01:48:36;;;;;;;395.57;47.80;;;;;;;;;;5028709;28;20045;-68
2022/01/13 01:51:04;;;;;;;410.53;53.63;;;;;;;;;;5028644;28;20562;-67
2022/01/13 01:53:31;;;;;;;377.10;48.00;;;;;;;;;;5028574;28;20057;-68
2022/01/13 01:55:57;;;;;;;497.37;62.47;;;;;;;;;;5027473;28;20104;-67
2022/01/13 01:58:26;;;;;;;463.30;55.90;;;;;;;;;;5027317;28;20049;-67
2022/01/13 02:00:54;;;;;;;517.40;61.23;;;;;;;;;;5027239;28;20084;-67
2022/01/13 02:03:20;;;;;;;395.67;51.57;;;;;;;;;;5027376;28;20053;-68
2022/01/13 02:05:47;;;;;;;494.80;61.67;;;;;;;;;;5028625;28;20041;-67
2022/01/13 02:08:13;;;;;;;439.13;53.50;;;;;;;;;;5028612;28;20434;-68
2022/01/13 02:10:39;;;;;;;519.03;62.03;;;;;;;;;;5027149;28;20049;-68
2022/01/13 02:13:09;;;;;;;453.77;57.17;;;;;;;;;;5027804;28;20041;-68
2022/01/13 02:15:47;;;;;;;484.67;61.03;;;;;;;;;;5028574;28;20418;-68
2022/01/13 02:18:14;;;;;;;551.90;65.80;;;;;;;;;;5028062;28;20463;-67
2022/01/13 02:21:00;;;;;;;513.47;61.10;;;;;;;;;;5027780;28;20037;-68
2022/01/13 02:23:30;;;;;;;505.27;62.77;;;;;;;;;;5010667;28;20500;-68
2022/01/13 02:25:56;;;;;;;466.80;58.03;;;;;;;;;;5028163;28;20046;-67
2022/01/13 02:28:22;;;;;;;469.83;60.97;;;;;;;;;;5028425;28;20049;-67
2022/01/13 02:30:48;;;;;;;508.90;62.93;;;;;;;;;;5010319;28;20095;-67
2022/01/13 02:33:14;;;;;;;509.10;60.03;;;;;;;;;;5028455;28;20084;-67
2022/01/13 02:35:40;;;;;;;479.17;59.50;;;;;;;;;;5010027;28;20055;-67
2022/01/13 02:38:10;;;;;;;570.93;69.03;;;;;;;;;;5028627;28;20051;-67
2022/01/13 02:40:36;;;;;;;480.70;62.00;;;;;;;;;;5028007;28;20053;-67
2022/01/13 02:43:02;;;;;;;546.07;67.70;;;;;;;;;;5027382;28;20391;-67
2022/01/13 02:45:34;;;;;;;539.23;67.20;;;;;;;;;;5028407;28;20052;-67
2022/01/13 02:48:25;;;;;;;520.83;63.07;;;;;;;;;;5026341;28;20045;-67
2022/01/13 02:50:46;;;;;;;515.87;63.23;;;;;;;;;;5026839;28;20140;-67
2022/01/13 02:53:12;;;;;;;590.30;64.33;;;;;;;;;;5031283;28;20116;-67
2022/01/13 02:55:38;;;;;;;554.63;68.13;;;;;;;;;;5031402;28;20056;-67
2022/01/13 02:58:04;;;;;;;494.73;61.03;;;;;;;;;;5032022;28;20099;-67
2022/01/13 03:00:30;;;;;;;584.37;64.63;;;;;;;;;;5031497;28;20081;-68
2022/01/13 03:02:56;;;;;;;507.40;59.67;;;;;;;;;;5030223;28;20087;-67
2022/01/13 03:05:22;;;;;;;451.13;58.07;;;;;;;;;;5031233;28;20041;-67
2022/01/13 03:07:48;;;;;;;488.40;60.53;;;;;;;;;;5031647;28;20488;-67
2022/01/13 03:10:14;;;;;;;519.80;63.37;;;;;;;;;;5031331;28;20045;-67
2022/01/13 03:12:42;;;;;;;575.50;67.40;;;;;;;;;;5031578;28;20504;-67
2022/01/13 03:15:08;;;;;;;496.70;61.23;;;;;;;;;;5031282;28;20045;-67
2022/01/13 03:17:34;;;;;;;510.40;60.13;;;;;;;;;;5031409;28;20061;-68
2022/01/13 03:20:00;;;;;;;449.77;58.40;;;;;;;;;;5031190;28;20154;-68
2022/01/13 03:22:26;;;;;;;477.10;59.73;;;;;;;;;;5031197;28;20049;-67
2022/01/13 03:24:52;;;;;;;521.60;60.97;;;;;;;;;;5031333;28;20067;-67
2022/01/13 03:27:21;;;;;;;411.60;51.80;;;;;;;;;;5030230;28;20056;-67
2022/01/13 03:29:47;;;;;;;429.67;53.13;;;;;;;;;;5029374;28;20046;-67
2022/01/13 03:32:14;;;;;;;439.70;55.23;;;;;;;;;;5031320;28;20499;-68
2022/01/13 03:34:40;;;;;;;435.20;54.73;;;;;;;;;;5030978;28;20139;-67
2022/01/13 03:37:06;;;;;;;439.97;54.17;;;;;;;;;;5030271;28;20076;-68
2022/01/13 03:39:32;;;;;;;420.07;50.70;;;;;;;;;;5012990;28;20041;-67
2022/01/13 03:42:01;;;;;;;415.90;53.43;;;;;;;;;;5030838;28;20392;-67
2022/01/13 03:44:27;;;;;;;462.30;55.23;;;;;;;;;;5032276;28;20060;-67
2022/01/13 03:46:54;;;;;;;477.20;58.20;;;;;;;;;;5036101;28;20165;-68
2022/01/13 03:49:20;;;;;;;482.23;56.87;;;;;;;;;;5041645;28;20041;-68
2022/01/13 03:51:55;;;;;;;437.80;54.87;;;;;;;;;;5039328;28;20045;-67
2022/01/13 03:54:30;;;;;;;420.93;51.83;;;;;;;;;;5030237;28;20127;-67
2022/01/13 03:57:15;;;;;;;426.90;53.93;;;;;;;;;;5030525;28;20045;-67
2022/01/13 03:59:52;;;;;;;418.63;49.17;;;;;;;;;;5030471;28;20100;-67
2022/01/13 04:02:18;;;;;;;422.83;51.87;;;;;;;;;;5029514;28;20049;-68
2022/01/13 04:04:45;;;;;;;433.17;53.33;;;;;;;;;;5030135;28;20053;-67
2022/01/13 04:07:15;;;;;;;400.57;50.40;;;;;;;;;;5029727;28;20392;-68
2022/01/13 04:09:40;;;;;;;376.10;48.70;;;;;;;;;;5030156;28;20056;-68
2022/01/13 04:12:09;;;;;;;397.50;51.03;;;;;;;;;;5036328;28;20037;-67
2022/01/13 04:17:12;;;;;;;346.27;47.67;;;;;;;;;;5037793;28;20064;-68
2022/01/13 04:19:39;;;;;;;372.17;48.83;;;;;;;;;;5037293;28;20521;-67
2022/01/13 04:22:05;;;;;;;358.70;48.00;;;;;;;;;;5035054;28;20102;-67
2022/01/13 04:24:31;;;;;;;421.03;54.37;;;;;;;;;;5029945;28;20498;-67
2022/01/13 04:26:58;;;;;;;321.63;46.83;;;;;;;;;;5028608;28;20050;-68
2022/01/13 04:29:33;;;;;;;425.60;55.13;;;;;;;;;;5029752;28;20049;-67
2022/01/13 04:31:59;;;;;;;371.50;49.60;;;;;;;;;;5028221;28;20459;-67
2022/01/13 04:34:26;;;;;;;309.37;47.40;;;;;;;;;;5028257;28;20052;-67
2022/01/13 04:36:54;;;;;;;417.10;54.60;;;;;;;;;;5026241;28;20050;-67
2022/01/13 04:39:21;;;;;;;379.83;49.57;;;;;;;;;;5026456;28;20626;-68
2022/01/13 04:41:48;;;;;;;450.43;57.43;;;;;;;;;;5028849;28;20415;-66
2022/01/13 04:44:16;;;;;;;395.73;53.90;;;;;;;;;;5028580;28;20049;-68
2022/01/13 04:46:43;;;;;;;385.40;51.80;;;;;;;;;;5028500;28;20061;-67
2022/01/13 04:49:09;;;;;;;393.57;51.43;;;;;;;;;;5028098;28;20072;-68
2022/01/13 04:51:35;;;;;;;423.27;56.73;;;;;;;;;;5029464;28;20050;-68
2022/01/13 04:54:01;;;;;;;373.20;50.50;;;;;;;;;;5029658;28;20120;-67
2022/01/13 04:56:39;;;;;;;380.80;51.93;;;;;;;;;;5029127;28;20049;-67
2022/01/13 04:59:05;;;;;;;433.23;56.37;;;;;;;;;;5029268;28;20045;-67
2022/01/13 05:01:31;;;;;;;386.47;50.47;;;;;;;;;;5029106;28;20046;-67
2022/01/13 05:03:57;;;;;;;423.40;54.30;;;;;;;;;;5028563;28;20045;-68
2022/01/13 05:06:23;;;;;;;441.23;54.30;;;;;;;;;;5028169;28;20549;-68
2022/01/13 05:08:50;;;;;;;363.87;50.10;;;;;;;;;;5028393;28;20155;-68
2022/01/13 05:11:17;;;;;;;429.17;56.87;;;;;;;;;;5027804;28;20561;-66
2022/01/13 05:13:43;;;;;;;373.23;49.33;;;;;;;;;;5027903;28;20484;-67
2022/01/13 05:16:19;;;;;;;392.60;51.27;;;;;;;;;;5027617;28;20389;-67
2022/01/13 05:21:26;;;;;;;395.93;53.90;;;;;;;;;;5029363;28;20085;-67
2022/01/13 05:23:52;;;;;;;353.63;50.73;;;;;;;;;;5028025;28;20080;-67
2022/01/13 05:26:22;;;;;;;344.40;49.50;;;;;;;;;;5026650;28;20139;-67
2022/01/13 05:28:49;;;;;;;381.50;50.67;;;;;;;;;;5027617;28;20052;-67
2022/01/13 05:31:15;;;;;;;387.77;51.70;;;;;;;;;;5027390;28;20052;-67
2022/01/13 05:33:41;;;;;;;369.97;53.50;;;;;;;;;;5028717;28;20042;-67
2022/01/13 05:36:08;;;;;;;364.77;51.67;;;;;;;;;;5028908;28;20053;-67
2022/01/13 05:38:34;;;;;;;339.80;48.13;;;;;;;;;;5028798;28;20045;-67
2022/01/13 05:41:00;;;;;;;391.77;54.30;;;;;;;;;;5028264;28;20420;-67
2022/01/13 05:43:26;;;;;;;350.60;50.33;;;;;;;;;;5028932;28;20033;-67
2022/01/13 05:45:52;;;;;;;410.57;55.40;;;;;;;;;;5027671;28;20042;-67
2022/01/13 05:48:18;;;;;;;418.77;56.47;;;;;;;;;;5028603;28;20054;-67
2022/01/13 05:50:44;;;;;;;415.67;56.83;;;;;;;;;;5026988;28;20155;-67
2022/01/13 05:53:10;;;;;;;412.30;57.20;;;;;;;;;;5028435;28;20048;-68
2022/01/13 05:55:38;;;;;;;432.53;57.10;;;;;;;;;;5027200;28;20100;-67
2022/01/13 05:58:04;;;;;;;400.67;54.33;;;;;;;;;;5028671;28;20045;-67
2022/01/13 06:00:30;;;;;;;381.03;55.50;;;;;;;;;;5028586;28;20045;-67
2022/01/13 06:02:56;;;;;;;430.83;57.13;;;;;;;;;;5028169;28;20042;-67
2022/01/13 06:05:22;;;;;;;323.97;50.10;;;;;;;;;;5027251;28;20076;-67
2022/01/13 06:07:49;;;;;;;367.40;53.93;;;;;;;;;;5028175;28;20052;-67
2022/01/13 06:10:19;;;;;;;415.03;57.23;;;;;;;;;;5027361;28;20046;-67
2022/01/13 06:12:48;;;;;;;398.17;55.60;;;;;;;;;;5028564;28;20080;-67
2022/01/13 06:15:15;;;;;;;394.77;53.63;;;;;;;;;;5028329;28;20060;-67
2022/01/13 06:17:42;;;;;;;350.03;51.87;;;;;;;;;;5026808;28;20081;-67
2022/01/13 06:20:10;;;;;;;385.60;52.00;;;;;;;;;;5028557;28;20099;-67
2022/01/13 06:22:36;;;;;;;285.87;42.70;;;;;;;;;;5028146;28;20500;-67
2022/01/13 06:25:03;;;;;;;403.50;55.13;;;;;;;;;;5028274;28;20049;-67
2022/01/13 06:27:29;;;;;;;405.17;55.50;;;;;;;;;;5030351;28;20061;-68
2022/01/13 06:29:55;;;;;;;400.77;58.07;;;;;;;;;;5030504;28;20701;-67
2022/01/13 06:32:21;;;;;;;417.53;57.17;;;;;;;;;;5030433;28;20045;-67
2022/01/13 06:34:48;;;;;;;412.67;57.17;;;;;;;;;;5030731;28;20054;-67
2022/01/13 06:37:14;;;;;;;374.60;53.63;;;;;;;;;;5030269;28;20046;-67
2022/01/13 06:39:40;;;;;;;374.30;55.07;;;;;;;;;;5032637;28;20100;-67
2022/01/13 06:42:06;;;;;;;394.00;57.87;;;;;;;;;;5030896;28;20049;-67
2022/01/13 06:44:32;;;;;;;384.97;53.73;;;;;;;;;;5030453;28;20076;-67
2022/01/13 06:46:58;;;;;;;421.27;56.00;;;;;;;;;;5024150;28;20084;-67
2022/01/13 06:49:24;;;;;;;398.90;54.93;;;;;;;;;;5027323;28;20053;-67
2022/01/13 06:51:50;;;;;;;789.10;116.23;;;;;;;;;;5032302;28;20046;-67
2022/01/13 06:54:16;;;;;;;443.63;59.83;;;;;;;;;;5031565;28;20037;-67
2022/01/13 06:56:42;;;;;;;423.87;58.27;;;;;;;;;;5029827;28;20052;-67
2022/01/13 06:59:11;;;;;;;377.30;52.70;;;;;;;;;;5029184;28;20037;-67
2022/01/13 07:01:41;;;;;;;403.00;61.10;;;;;;;;;;5029768;28;20045;-67
2022/01/13 07:04:12;;;;;;;428.50;60.67;;;;;;;;;;5028834;28;20051;-67
2022/01/13 07:06:38;;;;;;;380.57;56.40;;;;;;;;;;5031619;28;20068;-67
2022/01/13 07:09:07;;;;;;;420.33;58.73;;;;;;;;;;5030993;28;20506;-68
2022/01/13 07:11:33;;;;;;;453.83;62.80;;;;;;;;;;5028918;28;20041;-67
2022/01/13 07:13:59;;;;;;;404.50;58.57;;;;;;;;;;5031112;28;20077;-68
2022/01/13 07:16:25;;;;;;;406.83;57.17;;;;;;;;;;5027807;28;20516;-67
2022/01/13 07:18:51;;;;;;;437.33;62.80;;;;;;;;;;5030660;28;20455;-68
2022/01/13 07:21:19;;;;;;;428.77;60.40;;;;;;;;;;5036292;28;20040;-67
2022/01/13 07:23:45;;;;;;;428.07;61.97;;;;;;;;;;5034924;28;20051;-67
2022/01/13 07:26:11;;;;;;;416.83;60.23;;;;;;;;;;5042026;28;20033;-67
2022/01/13 07:28:37;;;;;;;406.33;61.43;;;;;;;;;;5035338;28;20044;-68
2022/01/13 07:31:04;;;;;;;493.13;67.83;;;;;;;;;;5041961;28;20419;-67
2022/01/13 07:33:30;;;;;;;513.50;71.77;;;;;;;;;;5029577;28;20120;-67
2022/01/13 07:35:56;;;;;;;484.63;65.03;;;;;;;;;;5030620;28;20046;-67
2022/01/13 07:38:22;;;;;;;451.73;64.33;;;;;;;;;;5027782;28;20096;-67
2022/01/13 07:40:49;;;;;;;453.23;65.53;;;;;;;;;;5031355;28;20048;-67
2022/01/13 07:43:23;;;;;;;448.33;63.13;;;;;;;;;;5029845;28;20068;-67
2022/01/13 07:45:49;;;;;;;442.45;64.22;;;;;;;;;;5029164;28;20620;-68
2022/01/13 07:48:15;;;;;;;429.70;60.43;;;;;;;;;;5030027;28;20283;-67
2022/01/13 07:50:41;;;;;;;437.37;62.73;;;;;;;;;;5030125;28;21913;-67
2022/01/13 07:53:07;;;;;;;390.37;56.47;;;;;;;;;;5031184;28;20045;-67
2022/01/13 07:55:33;;;;;;;369.13;55.03;;;;;;;;;;5028829;28;20103;-67
2022/01/13 07:58:00;;;;;;;414.30;62.43;;;;;;;;;;5030172;28;20128;-67
2022/01/13 08:00:26;;;;;;;391.63;58.70;;;;;;;;;;5030068;28;20124;-68
2022/01/13 08:02:52;;;;;;;328.07;51.63;;;;;;;;;;5030349;28;20051;-68
2022/01/13 08:05:18;;;;;;;390.70;60.27;;;;;;;;;;5026528;28;20037;-67
2022/01/13 08:07:44;;;;;;;369.03;57.67;;;;;;;;;;5029684;28;20095;-67
2022/01/13 08:10:10;;;;;;;383.67;58.57;;;;;;;;;;5029816;28;20084;-67
2022/01/13 08:12:37;;;;;;;311.33;53.87;;;;;;;;;;5028063;28;20546;-67
2022/01/13 08:15:04;;;;;;;404.10;58.13;;;;;;;;;;5032675;28;20037;-68
2022/01/13 08:20:14;;;;;;;322.63;54.73;;;;;;;;;;5009447;28;20050;-67
2022/01/13 08:22:40;;;;;;;297.30;49.77;;;;;;;;;;5030384;28;20651;-67
2022/01/13 08:25:07;;;;;;;369.60;53.57;;;;;;;;;;5028269;28;20045;-67
2022/01/13 08:27:33;;;;;;;320.33;51.73;;;;;;;;;;5031785;28;20152;-67
2022/01/13 08:29:59;;;;;;;295.67;48.80;;;;;;;;;;5030034;28;20037;-67
2022/01/13 08:32:25;;;;;;;294.10;48.63;;;;;;;;;;5031130;28;20402;-67
2022/01/13 08:34:51;;;;;;;344.00;52.50;;;;;;;;;;5029119;28;20761;-67
2022/01/13 08:37:17;;;;;;;300.13;51.20;;;;;;;;;;5028381;28;20045;-68
2022/01/13 08:39:45;;;;;;;324.90;53.30;;;;;;;;;;5029523;28;20049;-68
2022/01/13 08:42:14;;;;;;;302.97;50.33;;;;;;;;;;5029514;28;20056;-67
2022/01/13 08:44:40;;;;;;;275.83;48.23;;;;;;;;;;5027660;28;20065;-67
2022/01/13 08:47:06;;;;;;;276.63;50.20;;;;;;;;;;5029128;28;20045;-67
2022/01/13 08:49:33;;;;;;;347.37;52.90;;;;;;;;;;5028953;28;20416;-68
2022/01/13 08:51:59;;;;;;;277.97;50.47;;;;;;;;;;5028386;28;20054;-67
2022/01/13 08:54:25;;;;;;;373.87;55.87;;;;;;;;;;5028271;28;20061;-67
2022/01/13 08:56:51;;;;;;;319.73;50.93;;;;;;;;;;5027933;28;20053;-67
2022/01/13 08:59:18;;;;;;;513.10;83.50;;;;;;;;;;5027942;28;20457;-67
2022/01/13 09:01:44;;;;;;;358.87;53.63;;;;;;;;;;5032245;28;20091;-67
2022/01/13 09:04:10;;;;;;;370.83;56.20;;;;;;;;;;5030050;28;20136;-68
2022/01/13 09:06:36;;;;;;;276.33;48.20;;;;;;;;;;5031482;28;20155;-66
2022/01/13 09:09:03;;;;;;;318.87;52.60;;;;;;;;;;5027335;28;20056;-65
2022/01/13 09:11:29;;;;;;;356.57;56.93;;;;;;;;;;5033280;28;20041;-66
2022/01/13 09:13:59;;;;;;;366.40;56.00;;;;;;;;;;5026999;28;20069;-65
2022/01/13 09:16:26;;;;;;;364.97;60.87;;;;;;;;;;5031594;28;20057;-66
2022/01/13 09:21:25;;;;;;;344.17;53.17;;;;;;;;;;5027218;28;20046;-66
2022/01/13 09:23:51;;;;;;;360.40;55.23;;;;;;;;;;5026438;28;20075;-66
2022/01/13 09:26:17;;;;;;;381.57;58.20;;;;;;;;;;5010336;28;20067;-65
2022/01/13 09:28:44;;;;;;;326.57;54.80;;;;;;;;;;5027652;28;20045;-65
2022/01/13 09:31:10;;;;;;;357.07;56.03;;;;;;;;;;5027141;28;20049;-65
2022/01/13 09:33:36;;;;;;;359.60;57.67;;;;;;;;;;5028038;28;20045;-66
2022/01/13 09:36:03;;;;;;;336.57;54.20;;;;;;;;;;5026558;28;20038;-65
2022/01/13 09:38:29;;;;;;;300.47;57.43;;;;;;;;;;5028530;28;20048;-65
2022/01/13 09:40:55;;;;;;;355.27;57.97;;;;;;;;;;5026848;28;20041;-65
2022/01/13 09:43:26;;;;;;;334.23;56.27;;;;;;;;;;5029413;28;20333;-66
2022/01/13 09:45:53;;;;;;;381.73;57.07;;;;;;;;;;5032296;28;20045;-65
2022/01/13 09:48:19;;;;;;;347.00;57.23;;;;;;;;;;5028295;28;20053;-65
2022/01/13 09:50:46;;;;;;;321.17;55.97;;;;;;;;;;5034704;28;20049;-65
2022/01/13 09:53:13;;;;;;;356.97;56.10;;;;;;;;;;5045574;28;20045;-65
2022/01/13 09:55:39;;;;;;;358.67;57.27;;;;;;;;;;5035075;28;20084;-65
2022/01/13 09:58:10;;;;;;;306.47;54.37;;;;;;;;;;5027965;28;20057;-66
2022/01/13 10:00:41;;;;;;;311.00;51.73;;;;;;;;;;5027768;28;20056;-66
2022/01/13 10:03:26;;;;;;;373.13;57.33;;;;;;;;;;5031359;28;20076;-65
2022/01/13 10:05:53;;;;;;;316.17;54.50;;;;;;;;;;5036255;28;20041;-66
2022/01/13 10:08:20;;;;;;;336.60;55.83;;;;;;;;;;5036184;28;20495;-65
2022/01/13 10:10:47;;;;;;;321.73;54.07;;;;;;;;;;5032328;28;20514;-65
2022/01/13 10:13:22;;;;;;;377.83;55.90;;;;;;;;;;5031735;28;20048;-65
2022/01/13 10:18:40;;;;;;;309.40;51.23;;;;;;;;;;5032561;28;20046;-65
2022/01/13 10:21:11;;;;;;;332.08;54.72;;;;;;;;;;5032475;28;20080;-65
2022/01/13 10:23:37;;;;;;;314.73;52.90;;;;;;;;;;5031847;28;20049;-65
2022/01/13 10:26:10;;;;;;;260.33;49.63;;;;;;;;;;5032388;28;20399;-65
2022/01/13 10:28:36;;;;;;;289.52;53.53;;;;;;;;;;5030861;28;20088;-66
2022/01/13 10:31:02;;;;;;;291.60;49.30;;;;;;;;;;5031175;28;20431;-66
2022/01/13 10:33:29;;;;;;;293.07;52.80;;;;;;;;;;5032043;28;20053;-66
2022/01/13 10:36:05;;;;;;;325.83;54.77;;;;;;;;;;5031448;28;20049;-65
2022/01/13 10:38:49;;;;;;;304.47;52.90;;;;;;;;;;5031787;28;20496;-66
2022/01/13 10:41:30;;;;;;;258.13;50.67;;;;;;;;;;5031437;28;20519;-66
2022/01/13 10:44:23;;;;;;;288.20;49.73;;;;;;;;;;5030154;28;20045;-66
2022/01/13 10:46:55;;;;;;;278.10;47.70;;;;;;;;;;5030442;28;20053;-66
2022/01/13 10:49:30;;;;;;;241.60;47.97;;;;;;;;;;5034237;28;20042;-65
2022/01/13 10:52:15;;;;;;;328.57;52.53;;;;;;;;;;5040437;28;20068;-66
2022/01/13 10:54:41;;;;;;;292.57;49.97;;;;;;;;;;5030317;28;20765;-66
2022/01/13 10:57:17;;;;;;;304.40;52.73;;;;;;;;;;5029917;28;20038;-65
2022/01/13 10:59:43;;;;;;;299.83;50.60;;;;;;;;;;5031752;28;20057;-65
2022/01/13 11:02:10;;;;;;;261.37;50.33;;;;;;;;;;5029873;28;20049;-65
2022/01/13 11:04:36;;;;;;;302.63;55.47;;;;;;;;;;5031017;28;20057;-66
2022/01/13 11:07:13;;;;;;;302.20;51.40;;;;;;;;;;5030427;28;20446;-66
2022/01/13 11:09:44;;;;;;;251.47;53.47;;;;;;;;;;5028979;28;20045;-66
2022/01/13 11:12:13;;;;;;;282.97;50.60;;;;;;;;;;5034401;28;20127;-65
2022/01/13 11:14:43;;;;;;;179.17;46.23;;;;;;;;;;5045289;28;20453;-66
2022/01/13 11:17:12;;;;;;;264.47;51.30;;;;;;;;;;5030956;28;20515;-66
2022/01/13 11:19:44;;;;;;;214.00;45.37;;;;;;;;;;5031041;28;20096;-66
2022/01/13 11:22:11;;;;;;;;;;;;;;;;;;5031822;28;20053;-67
2022/01/13 11:24:38;;;;;;;190.67;41.80;;;;;;;;;;5030478;28;20031;-67
2022/01/13 11:27:04;;;;;;;248.33;47.10;;;;;;;;;;5030982;28;20069;-66
2022/01/13 11:29:30;;;;;;;272.43;48.93;;;;;;;;;;5031498;28;20084;-66
2022/01/13 11:31:57;;;;;;;191.40;45.90;;;;;;;;;;5030756;28;20164;-67
2022/01/13 11:34:24;;;;;;;283.60;51.57;;;;;;;;;;5030887;28;20049;-66
2022/01/13 11:36:50;;;;;;;239.37;48.03;;;;;;;;;;5030942;28;20408;-68
2022/01/13 11:39:16;;;;;;;247.60;48.60;;;;;;;;;;5030069;28;20425;-66
2022/01/13 11:42:05;;;;;;;223.97;51.57;;;;;;;;;;5029929;28;20128;-66
2022/01/13 11:44:31;;;;;;;266.20;50.97;;;;;;;;;;5029206;28;20488;-66
2022/01/13 11:46:57;;;;;;;312.70;52.50;;;;;;;;;;5042486;28;20042;-66
2022/01/13 11:49:44;;;;;;;277.10;51.40;;;;;;;;;;5018808;28;20601;-67
2022/01/13 11:52:14;;;;;;;305.40;50.50;;;;;;;;;;5029190;28;20095;-66
2022/01/13 11:54:41;;;;;;;265.73;49.83;;;;;;;;;;5029870;28;20515;-66
2022/01/13 11:57:10;;;;;;;292.90;51.17;;;;;;;;;;5029545;28;20495;-67
2022/01/13 11:59:36;;;;;;;285.27;49.30;;;;;;;;;;5030168;28;20093;-67
2022/01/13 12:02:21;;;;;;;249.67;48.10;;;;;;;;;;5029447;28;20112;-66
2022/01/13 12:04:59;;;;;;;236.70;49.83;;;;;;;;;;5027788;28;20115;-66
2022/01/13 12:07:35;;;;;;;248.53;47.63;;;;;;;;;;5029910;28;20110;-66
2022/01/13 12:10:02;;;;;;;237.90;45.90;;;;;;;;;;5029982;28;20059;-67
2022/01/13 12:12:32;;;;;;;168.37;36.37;;;;;;;;;;5029377;28;20427;-66
2022/01/13 12:15:15;;;;;;;205.50;40.53;;;;;;;;;;5028307;28;20064;-66
2022/01/13 12:17:45;;;;;;;216.23;41.90;;;;;;;;;;5027931;28;20132;-66
2022/01/13 12:20:23;;;;;;;215.90;43.40;;;;;;;;;;5028792;28;20148;-66
2022/01/13 12:22:58;;;;;;;210.93;42.47;;;;;;;;;;5029636;28;20613;-67
2022/01/13 12:25:31;;;;;;;213.53;43.40;;;;;;;;;;5029634;28;20050;-66
2022/01/13 12:27:58;;;;;;;211.15;46.72;;;;;;;;;;5029009;28;20052;-67
2022/01/13 12:30:29;;;;;;;222.93;45.73;;;;;;;;;;5029746;28;20052;-67
2022/01/13 12:33:02;;;;;;;231.27;44.70;;;;;;;;;;5029926;28;20049;-67
2022/01/13 12:35:29;;;;;;;227.38;42.67;;;;;;;;;;5028276;28;20511;-67
2022/01/13 12:38:03;;;;;;;195.27;42.37;;;;;;;;;;5028346;28;20053;-67
2022/01/13 12:41:02;;;;;;;190.87;40.50;;;;;;;;;;5029687;28;20430;-66
2022/01/13 12:46:10;;;;;;;180.63;40.37;;;;;;;;;;5032456;28;20507;-67
2022/01/13 12:48:37;;;;;;;188.47;44.07;;;;;;;;;;5027700;28;20198;-66
2022/01/13 12:51:03;;;;;;;205.07;43.57;;;;;;;;;;5025867;28;20053;-67
2022/01/13 12:53:34;;;;;;;169.87;40.40;;;;;;;;;;5029168;28;20471;-66
2022/01/13 12:56:11;;;;;;;160.33;39.33;;;;;;;;;;5027556;28;20582;-66
2022/01/13 12:58:41;;;;;;;163.20;40.40;;;;;;;;;;5026846;28;20183;-66
2022/01/13 13:01:09;;;;;;;144.10;37.77;;;;;;;;;;5026718;28;20041;-67
2022/01/13 13:03:35;;;;;;;174.97;39.93;;;;;;;;;;5030716;28;20257;-67
2022/01/13 13:06:08;;;;;;;159.63;42.47;;;;;;;;;;5029282;28;20095;-67
2022/01/13 13:08:34;;;;;;;178.18;42.20;;;;;;;;;;5037280;28;20041;-66
2022/01/13 13:11:01;;;;;;;168.73;42.27;;;;;;;;;;5033343;28;20466;-66
2022/01/13 13:13:28;;;;;;;155.03;39.30;;;;;;;;;;5030746;28;20518;-67
2022/01/13 13:15:59;;;;;;;163.43;42.97;;;;;;;;;;5026837;28;20411;-66
2022/01/13 13:18:26;;;;;;;159.83;40.37;;;;;;;;;;5029484;28;20646;-66
2022/01/13 13:20:53;;;;;;;136.97;36.23;;;;;;;;;;5042310;28;20414;-67
2022/01/13 13:23:24;;;;;;;152.67;41.00;;;;;;;;;;5039245;28;20044;-66
2022/01/13 13:25:52;;;;;;;171.33;39.63;;;;;;;;;;5028666;28;20052;-67
2022/01/13 13:28:18;;;;;;;174.50;44.50;;;;;;;;;;5028117;28;20049;-67
2022/01/13 13:30:45;;;;;;;156.67;38.77;;;;;;;;;;5027967;28;20049;-66
2022/01/13 13:33:11;;;;;;;136.33;39.27;;;;;;;;;;5027448;28;20124;-66
2022/01/13 13:35:37;;;;;;;136.63;37.03;;;;;;;;;;5027707;28;20506;-67
2022/01/13 13:38:03;;;;;;;119.83;37.53;;;;;;;;;;5026330;28;20107;-66
2022/01/13 13:40:29;;;;;;;148.73;40.97;;;;;;;;;;5026712;28;20045;-67
2022/01/13 13:42:59;;;;;;;164.90;42.70;;;;;;;;;;5028336;28;20049;-67
2022/01/13 13:45:25;;;;;;;162.23;41.73;;;;;;;;;;5028062;28;20512;-66
2022/01/13 13:47:55;;;;;;;155.90;41.40;;;;;;;;;;5027351;28;20151;-67
2022/01/13 13:50:21;;;;;;;123.43;39.83;;;;;;;;;;5027263;28;20041;-67
2022/01/13 13:52:47;;;;;;;180.70;42.67;;;;;;;;;;5028708;28;20037;-67
2022/01/13 13:55:13;;;;;;;165.70;43.40;;;;;;;;;;5027866;28;20041;-67
2022/01/13 13:57:39;;;;;;;129.53;38.80;;;;;;;;;;5028692;28;20670;-67
2022/01/13 14:00:11;;;;;;;130.40;39.60;;;;;;;;;;5028301;28;20106;-67
2022/01/13 14:02:40;;;;;;;124.73;39.63;;;;;;;;;;5028738;28;20528;-66
2022/01/13 14:05:07;;;;;;;129.10;39.60;;;;;;;;;;5028343;28;20450;-67
2022/01/13 14:07:38;;;;;;;109.23;39.93;;;;;;;;;;5032988;28;20123;-67
2022/01/13 14:10:07;;;;;;;123.37;39.80;;;;;;;;;;5048208;28;20052;-67
2022/01/13 14:12:33;;;;;;;135.33;41.43;;;;;;;;;;5048579;28;20073;-67
2022/01/13 14:15:15;;;;;;;142.23;43.03;;;;;;;;;;5033984;28;20053;-67
2022/01/13 14:17:41;;;;;;;110.57;36.70;;;;;;;;;;5027953;28;20065;-66
2022/01/13 14:20:09;;;;;;;85.00;34.43;;;;;;;;;;5027149;28;20065;-67
2022/01/13 14:22:35;;;;;;;94.77;36.00;;;;;;;;;;5027699;28;20053;-66
2022/01/13 14:25:01;;;;;;;79.20;32.93;;;;;;;;;;5028364;28;20088;-66
2022/01/13 14:27:27;;;;;;;102.83;34.93;;;;;;;;;;5028136;28;20042;-66
2022/01/13 14:29:54;;;;;;;94.53;35.23;;;;;;;;;;5027237;28;20049;-67
2022/01/13 14:32:20;;;;;;;95.50;35.40;;;;;;;;;;5026969;28;20045;-67
2022/01/13 14:34:48;;;;;;;94.37;33.13;;;;;;;;;;5027826;28;20864;-67
2022/01/13 14:37:15;;;;;;;115.40;38.57;;;;;;;;;;5028421;28;20081;-66
2022/01/13 14:39:41;;;;;;;105.67;35.77;;;;;;;;;;5027162;28;20061;-67
2022/01/13 14:42:14;;;;;;;99.03;35.67;;;;;;;;;;5028277;28;20403;-66
2022/01/13 14:44:40;;;;;;;92.63;34.50;;;;;;;;;;5028419;28;20103;-66
2022/01/13 14:47:07;;;;;;;79.77;32.90;;;;;;;;;;5026445;28;20053;-67